Spalding, Idaho
Current Conditions -  °F | °C
As of 6:56 PM on Sunday 23 Nov 2014 (Local Time) from KLWS Reporting Station
Light Rain Light Rain  
Wind Chill: 40°   Ceiling: Unl
Heat Index: 45°   Visibility: 10mi
Dew Point: 36°   Wind: 9mph
Humidity: 71%   Direction: 260°W
Pressure: 30.12"   Gusts: NA
Location:  46.45°N, 116.82°W
Report Text: KLWS 240256Z 26008KT 10SM -RA CLR 07/02 A3012 RMK AO2 WSHFT 0200 SLP207 P0000 60004 T00720022 53003
Loading
Personal Weather Stations






























Interactive Weather Map New forecast layout! Learn more

10-Day Weather Forecast

Advertisements
Track Severe Weather on mobile